Trafford, Alabama
Current Conditions -  °F | °C
As of 2:53 PM on Thursday 18 Dec 2014 (Local Time) from KBHM Reporting Station
Light Rain Light Rain  
Wind Chill: 46°   Ceiling: 9500
Heat Index: 48°   Visibility: 10mi
Dew Point: 34°   Wind: 5mph
Humidity: 58%   Direction: 350°N
Pressure: 30.17"   Gusts: NA
Location:  33.82°N, 86.74°W
Report Text: KBHM 182053Z 35004KT 10SM -RA SCT045 OVC095 09/01 A3017 RMK AO2 RAB51 SLP218 P0000 60000 T00890011 58005
Loading
Personal Weather Stations






























Interactive Weather Map New forecast layout! Learn more

10-Day Weather Forecast

Advertisements
Track Severe Weather on mobile